createdAt,value
2023-05-05T00:01:14.851Z,99112.38
2023-05-05T00:04:17.778Z,99100.47
2023-05-05T00:07:19.555Z,99102.22
2023-05-05T00:10:21.681Z,99095.81
2023-05-05T00:13:23.941Z,99092.19
2023-05-05T00:16:25.757Z,99105.19
2023-05-05T00:19:27.468Z,99104.38
2023-05-05T00:22:29.204Z,99102.84
2023-05-05T00:25:30.913Z,99107.50
2023-05-05T00:28:32.672Z,99114.25
2023-05-05T00:31:34.565Z,99119.28
2023-05-05T00:34:36.276Z,99106.78
2023-05-05T00:37:37.903Z,99114.72
2023-05-05T00:40:39.642Z,99119.03
2023-05-05T00:43:41.209Z,99114.25
2023-05-05T00:46:43.577Z,99117.25
2023-05-05T00:49:46.277Z,99117.25
2023-05-05T00:52:48.672Z,99112.03
2023-05-05T00:55:51.206Z,99105.63
2023-05-05T00:58:53.131Z,99105.00
2023-05-05T01:01:54.862Z,99110.84
2023-05-05T01:04:56.600Z,99115.09
2023-05-05T01:08:33.829Z,99129.28
2023-05-05T01:12:00.905Z,99123.09
2023-05-05T01:15:05.548Z,99119.53
2023-05-05T01:18:35.318Z,99121.28
2023-05-05T01:22:07.169Z,99128.63
2023-05-05T01:25:12.202Z,99130.19
2023-05-05T01:28:45.472Z,99112.06
2023-05-05T01:31:55.071Z,99123.03
2023-05-05T01:34:56.916Z,99133.81
2023-05-05T01:38:25.444Z,99132.63
2023-05-05T01:41:32.046Z,99130.72
2023-05-05T01:44:37.038Z,99120.16
2023-05-05T01:47:40.582Z,99124.00
2023-05-05T01:50:43.856Z,99134.34
2023-05-05T01:53:47.347Z,99134.34
2023-05-05T01:56:49.785Z,99132.00
2023-05-05T01:59:53.496Z,99135.16
2023-05-05T02:02:59.912Z,99119.19
2023-05-05T02:06:03.500Z,99126.78
2023-05-05T02:09:06.713Z,99128.69
2023-05-05T02:12:09.736Z,99136.69
2023-05-05T02:15:13.013Z,99134.97
2023-05-05T02:18:14.909Z,99136.31
2023-05-05T02:21:18.178Z,99131.34
2023-05-05T02:24:19.905Z,99127.50
2023-05-05T02:27:24.337Z,99130.09
2023-05-05T02:30:30.137Z,99136.84
2023-05-05T02:33:34.872Z,99121.91
2023-05-05T02:36:41.482Z,99131.88
2023-05-05T02:39:51.652Z,99131.47
2023-05-05T02:42:57.312Z,99132.00
2023-05-05T02:46:03.709Z,99142.97
2023-05-05T02:49:07.372Z,99137.56
2023-05-05T02:52:09.816Z,99128.31
2023-05-05T02:55:14.042Z,99131.22
2023-05-05T02:58:49.235Z,99132.38
2023-05-05T03:01:51.575Z,99138.31
2023-05-05T03:05:04.209Z,99137.41
2023-05-05T03:08:18.340Z,99129.63
2023-05-05T03:11:29.075Z,99132.38
2023-05-05T03:14:36.498Z,99124.13
2023-05-05T03:17:40.469Z,99133.41
2023-05-05T03:20:43.594Z,99134.75
2023-05-05T03:23:47.389Z,99130.13
2023-05-05T03:26:54.489Z,99126.44
2023-05-05T03:29:59.783Z,99122.47
2023-05-05T03:33:01.935Z,99139.72
2023-05-05T03:36:04.013Z,99144.25
2023-05-05T03:39:06.097Z,99146.19
2023-05-05T03:42:09.055Z,99148.22
2023-05-05T03:45:11.352Z,99147.47
2023-05-05T03:48:14.402Z,99152.19
2023-05-05T03:51:17.507Z,99158.69
2023-05-05T03:54:19.215Z,99157.94
2023-05-05T03:57:21.063Z,99157.88
2023-05-05T04:00:22.771Z,99159.06
2023-05-05T04:03:24.658Z,99152.13
2023-05-05T04:06:26.534Z,99145.69
2023-05-05T04:09:28.575Z,99149.00
2023-05-05T04:12:30.726Z,99137.97
2023-05-05T04:15:32.563Z,99149.03
2023-05-05T04:18:36.168Z,99151.19
2023-05-05T04:21:38.935Z,99161.97
2023-05-05T04:24:40.886Z,99164.69
2023-05-05T04:27:42.583Z,99158.69
2023-05-05T04:30:44.459Z,99163.47
2023-05-05T04:33:46.355Z,99162.72
2023-05-05T04:36:48.849Z,99163.38
2023-05-05T04:39:51.163Z,99169.97
2023-05-05T04:42:52.905Z,99167.16
2023-05-05T04:45:55.870Z,99171.69
2023-05-05T04:49:03.472Z,99178.88
2023-05-05T04:52:05.650Z,99182.75
2023-05-05T04:55:10.399Z,99168.56
2023-05-05T04:58:12.166Z,99184.88
2023-05-05T05:01:13.825Z,99183.06
2023-05-05T05:04:18.684Z,99192.53
2023-05-05T05:07:20.663Z,99193.44
2023-05-05T05:10:22.333Z,99185.50
2023-05-05T05:13:24.000Z,99189.81
2023-05-05T05:16:25.862Z,99190.72
2023-05-05T05:19:28.648Z,99177.97
2023-05-05T05:22:31.110Z,99193.34
2023-05-05T05:25:33.522Z,99195.28
2023-05-05T05:28:35.305Z,99182.72
2023-05-05T05:31:37.590Z,99187.44
2023-05-05T05:34:39.651Z,99181.13
2023-05-05T05:37:43.437Z,99186.97
2023-05-05T05:40:45.352Z,99192.06
2023-05-05T05:43:47.304Z,99192.53
2023-05-05T05:46:49.249Z,99183.53
2023-05-05T05:49:51.647Z,99190.31
2023-05-05T05:52:54.724Z,99191.88
2023-05-05T05:55:57.057Z,99200.88
2023-05-05T05:58:59.086Z,99198.88
2023-05-05T06:02:01.557Z,99203.19
2023-05-05T06:05:03.430Z,99216.00
2023-05-05T06:08:05.404Z,99210.84
2023-05-05T06:11:10.999Z,99203.41
2023-05-05T06:14:12.827Z,99203.47
2023-05-05T06:17:14.612Z,99202.72
2023-05-05T06:20:16.571Z,99199.72
2023-05-05T06:23:18.573Z,99212.22
2023-05-05T06:26:26.149Z,99211.38
2023-05-05T06:29:28.730Z,99220.00
2023-05-05T06:32:30.516Z,99227.03
2023-05-05T06:35:32.240Z,99221.47
2023-05-05T06:38:33.920Z,99220.75
2023-05-05T06:41:35.599Z,99226.16
2023-05-05T06:44:37.891Z,99225.63
2023-05-05T06:47:40.181Z,99220.25
2023-05-05T06:50:42.388Z,99214.78
2023-05-05T06:53:44.104Z,99213.31
2023-05-05T06:56:46.196Z,99208.69
2023-05-05T06:59:47.970Z,99212.28
2023-05-05T07:02:49.926Z,99199.34
2023-05-05T07:05:53.890Z,99206.06
2023-05-05T07:08:55.782Z,99221.47
2023-05-05T07:11:57.622Z,99226.22
2023-05-05T07:14:59.291Z,99230.66
2023-05-05T07:18:01.052Z,99225.56
2023-05-05T07:21:02.821Z,99230.38
2023-05-05T07:24:04.645Z,99232.38
2023-05-05T07:27:07.250Z,99233.09
2023-05-05T07:30:13.135Z,99231.94
2023-05-05T07:33:16.147Z,99236.06
2023-05-05T07:36:18.536Z,99243.25
2023-05-05T07:39:21.140Z,99241.69
2023-05-05T07:42:22.806Z,99241.47
2023-05-05T07:45:24.724Z,99230.91
2023-05-05T07:48:26.516Z,99227.66
2023-05-05T07:51:28.129Z,99222.97
2023-05-05T07:54:29.870Z,99231.25
2023-05-05T07:57:31.529Z,99224.91
2023-05-05T08:00:33.285Z,99223.34
2023-05-05T08:03:35.062Z,99210.47
2023-05-05T08:06:36.868Z,99214.84
2023-05-05T08:09:38.666Z,99218.03
2023-05-05T08:12:40.693Z,99205.53
2023-05-05T08:15:42.619Z,99203.59
2023-05-05T08:18:44.475Z,99207.56
2023-05-05T08:21:46.305Z,99207.22
2023-05-05T08:24:47.949Z,99209.75
2023-05-05T08:27:49.667Z,99205.31
2023-05-05T08:30:51.375Z,99207.91
2023-05-05T08:33:56.057Z,99209.25
2023-05-05T08:36:57.824Z,99223.84
2023-05-05T08:39:59.416Z,99206.09
2023-05-05T08:43:01.610Z,99207.13
2023-05-05T08:46:04.212Z,99209.72
2023-05-05T08:49:08.942Z,99212.94
2023-05-05T08:52:13.453Z,99211.50
2023-05-05T08:55:24.328Z,99217.50
2023-05-05T08:58:28.831Z,99209.34
2023-05-05T09:01:32.379Z,99210.63
2023-05-05T09:04:34.810Z,99217.31
2023-05-05T09:07:37.676Z,99226.81
2023-05-05T09:10:43.155Z,99217.13
2023-05-05T09:13:44.836Z,99206.59
2023-05-05T09:16:46.582Z,99206.97
2023-05-05T09:20:04.840Z,99202.41
2023-05-05T09:23:15.685Z,99189.16
2023-05-05T09:26:17.407Z,99191.91
2023-05-05T09:29:20.756Z,99180.53
2023-05-05T09:32:22.690Z,99187.97
2023-05-05T09:35:25.783Z,99186.03
2023-05-05T09:38:27.430Z,99188.69
2023-05-05T09:41:43.600Z,99193.00
2023-05-05T09:44:45.264Z,99186.72
2023-05-05T09:47:47.961Z,99188.09
2023-05-05T09:50:50.039Z,99179.03
2023-05-05T09:53:51.707Z,99183.19
2023-05-05T09:56:54.503Z,99183.63
2023-05-05T09:59:57.911Z,99179.75
2023-05-05T10:03:03.118Z,99179.50
2023-05-05T10:06:07.737Z,99178.63
2023-05-05T10:09:09.436Z,99178.97
2023-05-05T10:12:11.606Z,99177.78
2023-05-05T10:15:15.685Z,99185.53
2023-05-05T10:18:28.337Z,99181.13
2023-05-05T10:21:37.211Z,99176.72
2023-05-05T10:24:55.817Z,99176.00
2023-05-05T10:28:00.555Z,99163.56
2023-05-05T10:31:16.415Z,99165.34
2023-05-05T10:34:46.437Z,99150.25
2023-05-05T10:37:49.200Z,99143.34
2023-05-05T10:40:51.954Z,99145.16
2023-05-05T10:43:59.960Z,99145.59
2023-05-05T10:47:03.401Z,99133.94
2023-05-05T10:50:26.611Z,99142.13
2023-05-05T10:53:42.622Z,99137.25
2023-05-05T10:56:44.446Z,99137.78
2023-05-05T10:59:47.451Z,99116.84
2023-05-05T11:02:49.432Z,99115.22
2023-05-05T11:06:09.147Z,99129.44
2023-05-05T11:09:29.941Z,99117.22
2023-05-05T11:12:33.195Z,99112.69
2023-05-05T11:15:37.973Z,99107.25
2023-05-05T11:18:44.352Z,99103.03
2023-05-05T11:22:02.016Z,99096.72
2023-05-05T11:25:36.186Z,99089.13
2023-05-05T11:29:10.229Z,99088.44
2023-05-05T11:32:14.013Z,99095.47
2023-05-05T11:35:16.305Z,99085.44
2023-05-05T11:38:22.134Z,99087.59
2023-05-05T11:41:32.944Z,99075.06
2023-05-05T11:44:35.794Z,99075.19
2023-05-05T11:47:37.587Z,99070.72
2023-05-05T11:50:39.677Z,99056.69
2023-05-05T11:53:46.554Z,99063.00
2023-05-05T11:56:53.055Z,99060.53
2023-05-05T11:59:55.683Z,99045.94
2023-05-05T12:02:58.111Z,99039.53
2023-05-05T12:05:59.919Z,99034.41
2023-05-05T12:09:01.772Z,99038.22
2023-05-05T12:12:03.796Z,99042.59
2023-05-05T12:15:06.763Z,99047.47
2023-05-05T12:18:18.790Z,99031.94
2023-05-05T12:21:21.953Z,99028.94
2023-05-05T12:24:23.858Z,99018.84
2023-05-05T12:27:27.019Z,99011.47
2023-05-05T12:30:28.780Z,99013.25
2023-05-05T12:33:31.661Z,98987.56
2023-05-05T12:36:34.696Z,99000.88
2023-05-05T12:39:36.785Z,99008.88
2023-05-05T12:42:39.463Z,99004.63
2023-05-05T12:45:41.390Z,99008.56
2023-05-05T12:48:48.304Z,99019.00
2023-05-05T12:51:56.983Z,99034.94
2023-05-05T12:54:59.932Z,99021.75
2023-05-05T12:58:04.396Z,99003.72
2023-05-05T13:01:10.544Z,99007.13
2023-05-05T13:04:13.758Z,99002.97
2023-05-05T13:07:17.882Z,98997.75
2023-05-05T13:10:19.511Z,98996.31
2023-05-05T13:13:21.120Z,98995.06
2023-05-05T13:16:22.938Z,98989.53
2023-05-05T13:19:25.175Z,98977.06
2023-05-05T13:22:27.125Z,98962.59
2023-05-05T13:25:28.790Z,98951.03
2023-05-05T13:28:30.568Z,98943.53
2023-05-05T13:31:32.305Z,98960.66
2023-05-05T13:34:34.273Z,98955.19
2023-05-05T13:37:36.055Z,98929.38
2023-05-05T13:40:37.812Z,98918.53
2023-05-05T13:43:39.469Z,98911.91
2023-05-05T13:46:42.606Z,98932.66
2023-05-05T13:49:44.270Z,98936.53
2023-05-05T13:52:45.976Z,98929.56
2023-05-05T13:55:47.725Z,98910.75
2023-05-05T13:58:49.334Z,98907.63
2023-05-05T14:01:50.947Z,98922.50
2023-05-05T14:04:52.598Z,98938.97
2023-05-05T14:07:57.164Z,98950.56
2023-05-05T14:10:58.952Z,98942.56
2023-05-05T14:14:00.699Z,98947.56
2023-05-05T14:17:02.440Z,98965.00
2023-05-05T14:20:04.672Z,98984.47
2023-05-05T14:23:06.457Z,99012.44
2023-05-05T14:26:09.117Z,99024.06
2023-05-05T14:29:11.172Z,99032.16
2023-05-05T14:32:12.828Z,99047.38
2023-05-05T14:35:14.426Z,99059.53
2023-05-05T14:38:16.164Z,99077.19
2023-05-05T14:41:17.808Z,99068.00
2023-05-05T14:44:19.385Z,99061.13
2023-05-05T14:47:21.030Z,99046.66
2023-05-05T14:50:22.756Z,99042.72
2023-05-05T14:53:24.448Z,99059.63
2023-05-05T14:56:26.538Z,99061.72
2023-05-05T14:59:28.884Z,99056.41
2023-05-05T15:02:31.095Z,99050.47
2023-05-05T15:05:33.006Z,99077.03
2023-05-05T15:08:34.930Z,99070.81
2023-05-05T15:11:36.526Z,99088.41
2023-05-05T15:14:38.254Z,99091.03
2023-05-05T15:17:41.735Z,99098.44
2023-05-05T15:20:43.561Z,99100.66
2023-05-05T15:23:45.213Z,99115.97
2023-05-05T15:26:46.943Z,99123.06
2023-05-05T15:29:48.860Z,99109.38
2023-05-05T15:32:50.579Z,99118.47
2023-05-05T15:35:52.253Z,99120.28
2023-05-05T15:38:54.096Z,99118.72
2023-05-05T15:41:55.800Z,99115.13
2023-05-05T15:44:59.171Z,99089.06
2023-05-05T15:48:01.033Z,99078.31
2023-05-05T15:51:02.781Z,99078.63
2023-05-05T15:54:04.615Z,99082.84
2023-05-05T15:57:06.323Z,99086.00
2023-05-05T16:00:09.341Z,99094.00
2023-05-05T16:03:12.385Z,99107.72
2023-05-05T16:06:14.219Z,99098.56
2023-05-05T16:09:16.239Z,99112.72
2023-05-05T16:12:18.472Z,99108.63
2023-05-05T16:15:20.453Z,99111.31
2023-05-05T16:18:22.040Z,99125.00
2023-05-05T16:21:23.680Z,99114.94
2023-05-05T16:24:25.433Z,99109.31
2023-05-05T16:27:27.126Z,99104.91
2023-05-05T16:30:29.289Z,99115.47
2023-05-05T16:33:31.315Z,99097.09
2023-05-05T16:36:32.991Z,99103.00
2023-05-05T16:39:40.009Z,99099.91
2023-05-05T16:42:44.229Z,99088.53
2023-05-05T16:45:46.681Z,99081.16
2023-05-05T16:48:48.519Z,99075.09
2023-05-05T16:51:52.553Z,99077.28
2023-05-05T16:54:55.820Z,99082.44
2023-05-05T16:57:57.474Z,99075.06
2023-05-05T17:01:01.862Z,99077.81
2023-05-05T17:04:03.592Z,99078.25
2023-05-05T17:07:05.270Z,99067.66
2023-05-05T17:10:07.645Z,99078.03
2023-05-05T17:13:10.633Z,99078.19
2023-05-05T17:16:12.290Z,99091.22
2023-05-05T17:19:14.198Z,99079.69
2023-05-05T17:22:16.240Z,99098.16
2023-05-05T17:25:17.911Z,99087.59
2023-05-05T17:28:19.708Z,99098.56
2023-05-05T17:31:21.919Z,99089.31
2023-05-05T17:34:23.578Z,99099.03
2023-05-05T17:37:25.234Z,99087.25
2023-05-05T17:40:26.942Z,99095.13
2023-05-05T17:43:28.686Z,99099.63
2023-05-05T17:46:30.471Z,99093.69
2023-05-05T17:49:32.167Z,99098.56
2023-05-05T17:52:33.821Z,99108.94
2023-05-05T17:55:35.566Z,99098.09
2023-05-05T17:58:37.620Z,99114.63
2023-05-05T18:01:39.577Z,99113.72
2023-05-05T18:04:41.343Z,99112.41
2023-05-05T18:07:42.927Z,99113.72
2023-05-05T18:10:44.578Z,99109.44
2023-05-05T18:13:46.279Z,99119.00
2023-05-05T18:16:49.931Z,99117.81
2023-05-05T18:19:51.644Z,99119.97
2023-05-05T18:22:53.238Z,99126.03
2023-05-05T18:25:55.055Z,99129.59
2023-05-05T18:28:56.988Z,99127.25
2023-05-05T18:31:59.503Z,99132.69
2023-05-05T18:35:01.265Z,99126.44
2023-05-05T18:38:04.036Z,99123.16
2023-05-05T18:41:05.693Z,99127.75
2023-05-05T18:44:07.325Z,99134.25
2023-05-05T18:47:09.129Z,99137.84
2023-05-05T18:50:11.291Z,99137.22
2023-05-05T18:53:14.749Z,99142.41
2023-05-05T18:56:16.592Z,99151.38
2023-05-05T18:59:18.148Z,99154.41
2023-05-05T19:02:19.764Z,99157.06
2023-05-05T19:05:21.601Z,99172.38
2023-05-05T19:08:23.407Z,99171.22
2023-05-05T19:11:25.255Z,99163.69
2023-05-05T19:14:26.871Z,99155.88
2023-05-05T19:17:28.537Z,99152.09
2023-05-05T19:20:31.825Z,99159.19
2023-05-05T19:23:33.651Z,99162.00
2023-05-05T19:26:35.747Z,99159.03
2023-05-05T19:29:37.394Z,99172.66
2023-05-05T19:32:39.019Z,99175.50
2023-05-05T19:35:40.643Z,99175.13
2023-05-05T19:38:44.511Z,99177.56
2023-05-05T19:41:46.565Z,99188.91
2023-05-05T19:44:48.139Z,99203.84
2023-05-05T19:47:49.782Z,99206.81
2023-05-05T19:50:52.021Z,99196.84
2023-05-05T19:53:53.582Z,99216.84
2023-05-05T19:56:57.273Z,99215.47
2023-05-05T20:00:02.532Z,99222.19
2023-05-05T20:03:06.739Z,99219.53
2023-05-05T20:06:08.435Z,99208.78
2023-05-05T20:09:10.138Z,99218.16
2023-05-05T20:12:12.312Z,99208.44
2023-05-05T20:15:18.587Z,99214.13
2023-05-05T20:18:20.256Z,99204.13
2023-05-05T20:21:22.079Z,99220.47
2023-05-05T20:24:23.729Z,99211.78
2023-05-05T20:27:26.635Z,99205.84
2023-05-05T20:30:29.723Z,99194.69
2023-05-05T20:33:31.558Z,99204.94
2023-05-05T20:36:33.264Z,99217.84
2023-05-05T20:39:34.928Z,99213.63
2023-05-05T20:42:37.066Z,99213.56
2023-05-05T20:45:38.804Z,99221.91
2023-05-05T20:48:42.785Z,99221.44
2023-05-05T20:51:44.838Z,99223.56
2023-05-05T20:54:46.428Z,99215.25
2023-05-05T20:57:48.066Z,99227.34
2023-05-05T21:00:50.456Z,99218.91
2023-05-05T21:03:52.675Z,99228.38
2023-05-05T21:06:54.351Z,99222.16
2023-05-05T21:09:56.020Z,99223.47
2023-05-05T21:12:57.715Z,99209.94
2023-05-05T21:15:59.346Z,99218.56
2023-05-05T21:19:00.976Z,99220.25
2023-05-05T21:22:02.606Z,99219.44
2023-05-05T21:25:16.018Z,99213.19
2023-05-05T21:28:17.707Z,99218.38
2023-05-05T21:31:22.138Z,99210.81
2023-05-05T21:34:24.121Z,99213.69
2023-05-05T21:37:26.057Z,99207.63
2023-05-05T21:40:27.685Z,99209.97
2023-05-05T21:43:29.512Z,99201.75
2023-05-05T21:46:31.514Z,99199.91
2023-05-05T21:49:33.317Z,99200.25
2023-05-05T21:52:35.020Z,99196.75
2023-05-05T21:55:36.580Z,99201.81
2023-05-05T21:58:38.362Z,99188.31
2023-05-05T22:01:41.161Z,99188.56
2023-05-05T22:04:42.918Z,99187.00
2023-05-05T22:07:44.919Z,99185.41
2023-05-05T22:10:46.812Z,99191.22
2023-05-05T22:13:48.381Z,99188.50
2023-05-05T22:16:49.986Z,99188.56
2023-05-05T22:19:51.614Z,99189.78
2023-05-05T22:22:53.296Z,99184.63
2023-05-05T22:25:55.324Z,99197.00
2023-05-05T22:28:57.193Z,99196.53
2023-05-05T22:31:58.769Z,99185.03
2023-05-05T22:35:01.300Z,99193.00
2023-05-05T22:38:03.197Z,99198.78
2023-05-05T22:41:06.537Z,99187.75
2023-05-05T22:44:08.178Z,99205.19
2023-05-05T22:47:10.041Z,99202.03
2023-05-05T22:50:11.743Z,99206.03
2023-05-05T22:53:13.613Z,99187.25
2023-05-05T22:56:15.461Z,99197.78
2023-05-05T22:59:17.114Z,99192.09
2023-05-05T23:02:18.781Z,99199.78
2023-05-05T23:05:20.658Z,99185.34
2023-05-05T23:08:24.029Z,99198.81
2023-05-05T23:11:26.361Z,99189.00
2023-05-05T23:14:28.153Z,99187.06
2023-05-05T23:17:29.974Z,99187.31
2023-05-05T23:20:31.728Z,99182.91
2023-05-05T23:23:33.369Z,99183.34
2023-05-05T23:26:35.071Z,99186.06
2023-05-05T23:29:36.688Z,99191.16
2023-05-05T23:32:38.267Z,99186.41
2023-05-05T23:35:43.274Z,99191.72
2023-05-05T23:38:45.622Z,99191.72
2023-05-05T23:41:47.368Z,99181.78
2023-05-05T23:44:49.054Z,99183.81
2023-05-05T23:47:50.931Z,99185.97
2023-05-05T23:50:52.711Z,99190.19
2023-05-05T23:53:56.812Z,99194.81
2023-05-05T23:57:00.304Z,99190.19
